createdAt,value
2019-03-29T00:01:04.592Z,9.56
2019-03-29T00:03:39.482Z,9.57
2019-03-29T00:06:14.038Z,9.56
2019-03-29T00:08:50.431Z,9.55
2019-03-29T00:11:25.227Z,9.55
2019-03-29T00:14:01.816Z,9.55
2019-03-29T00:16:36.321Z,9.54
2019-03-29T00:19:10.900Z,9.52
2019-03-29T00:21:45.428Z,9.49
2019-03-29T00:24:19.955Z,9.44
2019-03-29T00:26:54.577Z,9.44
2019-03-29T00:29:30.940Z,9.42
2019-03-29T00:32:06.116Z,9.44
2019-03-29T00:34:41.910Z,9.35
2019-03-29T00:37:17.323Z,9.25
2019-03-29T00:39:52.726Z,9.21
2019-03-29T00:42:28.997Z,9.15
2019-03-29T00:45:05.696Z,9.14
2019-03-29T00:47:43.220Z,9.09
2019-03-29T00:50:17.941Z,9.15
2019-03-29T00:52:52.577Z,9.15
2019-03-29T00:55:28.890Z,9.14
2019-03-29T00:58:03.417Z,9.20
2019-03-29T01:00:38.543Z,9.20
2019-03-29T01:03:13.162Z,9.15
2019-03-29T01:05:47.934Z,9.11
2019-03-29T01:08:22.534Z,9.16
2019-03-29T01:10:57.432Z,9.21
2019-03-29T01:13:31.984Z,9.19
2019-03-29T01:16:06.806Z,9.13
2019-03-29T01:18:41.303Z,9.16
2019-03-29T01:21:15.880Z,9.14
2019-03-29T01:23:50.550Z,9.15
2019-03-29T01:26:25.278Z,9.18
2019-03-29T01:28:59.822Z,9.15
2019-03-29T01:31:34.885Z,9.16
2019-03-29T01:34:09.460Z,9.18
2019-03-29T01:36:44.192Z,9.18
2019-03-29T01:39:18.718Z,9.18
2019-03-29T01:41:53.348Z,9.18
2019-03-29T01:44:28.233Z,9.17
2019-03-29T01:47:03.923Z,9.18
2019-03-29T01:49:38.691Z,9.20
2019-03-29T01:52:13.283Z,9.20
2019-03-29T01:54:47.903Z,9.21
2019-03-29T01:57:25.324Z,9.16
2019-03-29T01:59:59.946Z,9.19
2019-03-29T02:02:34.452Z,9.14
2019-03-29T02:05:09.714Z,9.18
2019-03-29T02:07:44.295Z,9.19
2019-03-29T02:10:22.761Z,9.18
2019-03-29T02:12:58.190Z,9.20
2019-03-29T02:15:32.772Z,9.22
2019-03-29T02:18:07.388Z,9.20
2019-03-29T02:20:42.032Z,9.19
2019-03-29T02:23:16.685Z,9.21
2019-03-29T02:25:51.210Z,9.20
2019-03-29T02:28:27.450Z,9.14
2019-03-29T02:31:02.499Z,9.14
2019-03-29T02:33:38.083Z,9.18
2019-03-29T02:36:13.142Z,9.14
2019-03-29T02:38:55.716Z,9.16
2019-03-29T02:41:23.846Z,9.13
2019-03-29T02:44:00.430Z,9.02
2019-03-29T02:46:36.467Z,8.98
2019-03-29T02:49:12.731Z,9.03
2019-03-29T02:51:47.826Z,9.06
2019-03-29T02:54:22.486Z,8.97
2019-03-29T02:56:58.903Z,9.00
2019-03-29T02:59:33.448Z,9.01
2019-03-29T03:02:08.163Z,8.94
2019-03-29T03:04:43.604Z,8.91
2019-03-29T03:07:18.174Z,8.94
2019-03-29T03:09:54.496Z,8.94
2019-03-29T03:12:29.120Z,8.98
2019-03-29T03:15:03.624Z,8.97
2019-03-29T03:17:39.504Z,9.01
2019-03-29T03:20:15.955Z,9.00
2019-03-29T03:22:50.678Z,9.09
2019-03-29T03:25:27.370Z,9.08
2019-03-29T03:28:01.930Z,9.03
2019-03-29T03:30:36.523Z,8.98
2019-03-29T03:33:11.213Z,9.02
2019-03-29T03:35:48.725Z,9.05
2019-03-29T03:38:23.376Z,9.02
2019-03-29T03:40:59.493Z,9.00
2019-03-29T03:43:34.328Z,9.03
2019-03-29T03:46:10.834Z,9.02
2019-03-29T03:48:46.758Z,9.08
2019-03-29T03:51:21.556Z,9.08
2019-03-29T03:53:57.124Z,9.04
2019-03-29T03:56:33.182Z,9.05
2019-03-29T03:59:08.101Z,9.00
2019-03-29T04:01:42.719Z,8.99
2019-03-29T04:04:17.248Z,8.99
2019-03-29T04:06:51.987Z,9.06
2019-03-29T04:09:26.670Z,9.03
2019-03-29T04:12:01.252Z,9.05
2019-03-29T04:14:37.252Z,9.02
2019-03-29T04:17:13.578Z,9.02
2019-03-29T04:19:48.548Z,8.93
2019-03-29T04:22:24.547Z,8.90
2019-03-29T04:25:00.578Z,8.96
2019-03-29T04:27:35.239Z,8.94
2019-03-29T04:30:10.428Z,8.91
2019-03-29T04:32:45.058Z,8.91
2019-03-29T04:35:19.770Z,8.85
2019-03-29T04:37:54.399Z,8.81
2019-03-29T04:40:28.871Z,8.74
2019-03-29T04:43:04.827Z,8.77
2019-03-29T04:45:39.316Z,8.80
2019-03-29T04:48:14.209Z,8.84
2019-03-29T04:50:48.703Z,8.78
2019-03-29T04:53:23.406Z,8.65
2019-03-29T04:55:58.126Z,8.69
2019-03-29T04:58:32.766Z,8.71
2019-03-29T05:01:07.222Z,8.73
2019-03-29T05:03:41.805Z,8.74
2019-03-29T05:06:16.324Z,8.70
2019-03-29T05:08:53.020Z,8.68
2019-03-29T05:11:27.669Z,8.68
2019-03-29T05:14:02.356Z,8.72
2019-03-29T05:16:38.720Z,8.82
2019-03-29T05:19:13.247Z,8.74
2019-03-29T05:21:47.762Z,8.65
2019-03-29T05:24:22.399Z,8.67
2019-03-29T05:26:57.211Z,8.69
2019-03-29T05:29:32.170Z,8.67
2019-03-29T05:32:06.634Z,8.59
2019-03-29T05:34:41.793Z,8.70
2019-03-29T05:37:16.436Z,8.73
2019-03-29T05:39:52.832Z,8.78
2019-03-29T05:42:27.349Z,8.73
2019-03-29T05:45:01.950Z,8.74
2019-03-29T05:47:36.545Z,8.87
2019-03-29T05:50:11.360Z,8.90
2019-03-29T05:52:45.852Z,8.92
2019-03-29T05:55:32.033Z,8.95
2019-03-29T05:57:57.115Z,9.05
2019-03-29T06:00:31.656Z,9.13
2019-03-29T06:03:06.189Z,9.22
2019-03-29T06:05:41.076Z,9.26
2019-03-29T06:08:15.757Z,9.24
2019-03-29T06:10:50.383Z,9.23
2019-03-29T06:13:26.603Z,9.27
2019-03-29T06:16:01.170Z,9.39
2019-03-29T06:18:35.833Z,9.45
2019-03-29T06:21:11.863Z,9.45
2019-03-29T06:23:46.587Z,9.63
2019-03-29T06:26:21.412Z,9.82
2019-03-29T06:28:56.398Z,9.95
2019-03-29T06:31:31.399Z,10.11
2019-03-29T06:34:05.960Z,10.05
2019-03-29T06:36:42.196Z,10.17
2019-03-29T06:39:21.192Z,10.30
2019-03-29T06:41:57.126Z,10.33
2019-03-29T06:44:31.893Z,10.46
2019-03-29T06:47:08.304Z,10.94
2019-03-29T06:49:42.809Z,11.85
2019-03-29T06:52:17.299Z,11.65
2019-03-29T06:54:53.713Z,11.49
2019-03-29T06:57:30.343Z,11.70
2019-03-29T07:00:05.220Z,11.67
2019-03-29T07:02:41.605Z,11.53
2019-03-29T07:05:16.378Z,11.08
2019-03-29T07:07:51.324Z,11.55
2019-03-29T07:10:56.461Z,11.50
2019-03-29T07:13:36.323Z,12.06
2019-03-29T07:16:12.566Z,11.98
2019-03-29T07:18:49.002Z,12.65
2019-03-29T07:21:23.652Z,12.68
2019-03-29T07:24:00.106Z,13.11
2019-03-29T07:26:36.544Z,13.54
2019-03-29T07:29:11.097Z,14.34
2019-03-29T07:31:45.823Z,14.18
2019-03-29T07:34:20.389Z,14.86
2019-03-29T07:36:55.026Z,15.04
2019-03-29T07:39:29.605Z,14.86
2019-03-29T07:42:04.683Z,15.43
2019-03-29T07:44:39.513Z,16.24
2019-03-29T07:47:14.094Z,17.11
2019-03-29T07:49:48.713Z,18.49
2019-03-29T07:52:23.565Z,19.25
2019-03-29T07:54:58.246Z,19.48
2019-03-29T07:57:34.852Z,19.75
2019-03-29T08:00:11.746Z,19.76
2019-03-29T08:02:47.301Z,20.45
2019-03-29T08:05:23.640Z,20.22
2019-03-29T08:07:59.886Z,20.77
2019-03-29T08:10:36.272Z,20.91
2019-03-29T08:13:12.394Z,21.58
2019-03-29T08:15:48.397Z,21.77
2019-03-29T08:18:22.957Z,21.94
2019-03-29T08:20:57.691Z,21.55
2019-03-29T08:23:32.220Z,21.89
2019-03-29T08:26:09.280Z,21.85
2019-03-29T08:28:43.946Z,21.86
2019-03-29T08:31:18.808Z,21.58
2019-03-29T08:33:53.580Z,21.65
2019-03-29T08:36:28.261Z,21.46
2019-03-29T08:39:02.729Z,20.93
2019-03-29T08:41:37.199Z,21.02
2019-03-29T08:44:12.050Z,20.18
2019-03-29T08:46:48.476Z,19.55
2019-03-29T08:49:24.752Z,20.52
2019-03-29T08:51:59.383Z,20.61
2019-03-29T08:54:36.195Z,20.35
2019-03-29T08:57:11.015Z,19.53
2019-03-29T08:59:47.134Z,19.78
2019-03-29T09:02:25.092Z,20.76
2019-03-29T09:04:59.585Z,20.00
2019-03-29T09:07:44.424Z,19.06
2019-03-29T09:10:26.116Z,18.76
2019-03-29T09:13:04.085Z,18.98
2019-03-29T09:15:36.884Z,19.89
2019-03-29T09:18:11.316Z,20.30
2019-03-29T09:20:46.010Z,19.02
2019-03-29T09:23:20.856Z,19.68
2019-03-29T09:25:55.637Z,19.26
2019-03-29T09:28:32.751Z,19.21
2019-03-29T09:31:08.167Z,19.68
2019-03-29T09:33:42.903Z,19.94
2019-03-29T09:36:17.425Z,19.84
2019-03-29T09:38:52.168Z,19.47
2019-03-29T09:41:26.955Z,19.22
2019-03-29T09:44:02.169Z,19.35
2019-03-29T09:46:36.939Z,18.66
2019-03-29T09:49:11.349Z,19.09
2019-03-29T09:51:47.555Z,19.60
2019-03-29T09:54:21.958Z,19.43
2019-03-29T09:56:57.071Z,19.20
2019-03-29T09:59:31.577Z,18.73
2019-03-29T10:02:06.200Z,19.29
2019-03-29T10:04:40.990Z,18.23
2019-03-29T10:07:15.832Z,17.85
2019-03-29T10:09:52.290Z,18.53
2019-03-29T10:12:26.908Z,17.79
2019-03-29T10:15:01.449Z,18.49
2019-03-29T10:17:37.704Z,18.98
2019-03-29T10:20:12.998Z,18.59
2019-03-29T10:22:48.013Z,18.59
2019-03-29T10:25:22.516Z,18.57
2019-03-29T10:27:57.136Z,18.51
2019-03-29T10:30:46.651Z,18.78
2019-03-29T10:33:20.960Z,18.72
2019-03-29T10:35:56.063Z,18.57
2019-03-29T10:38:30.932Z,18.39
2019-03-29T10:41:05.363Z,18.75
2019-03-29T10:43:39.841Z,18.06
2019-03-29T10:46:14.878Z,18.55
2019-03-29T10:48:49.762Z,19.00
2019-03-29T10:51:25.852Z,19.25
2019-03-29T10:54:00.263Z,19.48
2019-03-29T10:56:35.019Z,19.14
2019-03-29T10:59:09.407Z,19.41
2019-03-29T11:01:44.174Z,18.69
2019-03-29T11:04:18.672Z,18.35
2019-03-29T11:06:55.261Z,18.71
2019-03-29T11:09:30.064Z,18.13
2019-03-29T11:12:04.544Z,18.69
2019-03-29T11:14:39.101Z,19.13
2019-03-29T11:17:13.669Z,19.42
2019-03-29T11:19:48.277Z,19.17
2019-03-29T11:22:22.889Z,18.68
2019-03-29T11:24:57.309Z,18.84
2019-03-29T11:27:31.746Z,19.08
2019-03-29T11:30:06.822Z,18.95
2019-03-29T11:32:41.537Z,19.00
2019-03-29T11:35:16.150Z,19.48
2019-03-29T11:37:51.939Z,17.94
2019-03-29T11:40:28.280Z,17.72
2019-03-29T11:43:04.843Z,18.02
2019-03-29T11:45:40.329Z,18.49
2019-03-29T11:48:15.061Z,18.50
2019-03-29T11:50:49.692Z,18.72
2019-03-29T11:53:25.516Z,19.22
2019-03-29T11:56:01.685Z,18.26
2019-03-29T11:58:36.388Z,19.13
2019-03-29T12:01:11.148Z,19.21
2019-03-29T12:03:45.657Z,19.56
2019-03-29T12:06:20.183Z,19.21
2019-03-29T12:08:57.113Z,19.38
2019-03-29T12:11:31.144Z,19.54
2019-03-29T12:14:05.973Z,19.52
2019-03-29T12:16:41.013Z,19.46
2019-03-29T12:19:17.488Z,19.32
2019-03-29T12:21:52.528Z,19.18
2019-03-29T12:24:29.018Z,18.60
2019-03-29T12:27:04.082Z,19.02
2019-03-29T12:29:38.854Z,19.13
2019-03-29T12:32:10.836Z,18.80
2019-03-29T12:34:45.668Z,18.93
2019-03-29T12:37:21.085Z,19.23
2019-03-29T12:39:55.477Z,19.48
2019-03-29T12:42:29.975Z,19.60
2019-03-29T12:45:05.011Z,19.09
2019-03-29T12:47:41.826Z,19.44
2019-03-29T12:50:17.052Z,18.81
2019-03-29T12:52:51.639Z,19.04
2019-03-29T12:55:26.717Z,19.26
2019-03-29T12:58:01.357Z,19.17
2019-03-29T13:00:36.168Z,19.12
2019-03-29T13:03:11.175Z,18.89
2019-03-29T13:05:45.619Z,19.15
2019-03-29T13:08:20.564Z,19.45
2019-03-29T13:10:55.321Z,19.34
2019-03-29T13:13:30.958Z,19.18
2019-03-29T13:16:05.369Z,19.12
2019-03-29T13:18:42.017Z,19.44
2019-03-29T13:21:18.338Z,19.26
2019-03-29T13:23:52.888Z,19.22
2019-03-29T13:26:27.538Z,19.21
2019-03-29T13:29:02.310Z,18.60
2019-03-29T13:31:36.901Z,18.35
2019-03-29T13:34:11.858Z,18.62
2019-03-29T13:36:48.675Z,19.14
2019-03-29T13:39:23.224Z,19.37
2019-03-29T13:41:59.297Z,19.37
2019-03-29T13:44:34.087Z,19.62
2019-03-29T13:47:08.485Z,19.46
2019-03-29T13:49:43.232Z,19.28
2019-03-29T13:52:18.129Z,19.39
2019-03-29T13:54:53.241Z,19.03
2019-03-29T13:57:27.684Z,19.08
2019-03-29T14:00:02.116Z,19.11
2019-03-29T14:02:37.036Z,19.27
2019-03-29T14:05:12.374Z,19.28
2019-03-29T14:07:48.181Z,19.42
2019-03-29T14:10:22.714Z,19.41
2019-03-29T14:12:59.309Z,19.35
2019-03-29T14:15:33.908Z,18.68
2019-03-29T14:18:09.252Z,18.73
2019-03-29T14:20:44.133Z,18.83
2019-03-29T14:23:18.763Z,18.92
2019-03-29T14:25:53.234Z,18.65
2019-03-29T14:28:27.702Z,18.56
2019-03-29T14:31:02.172Z,18.83
2019-03-29T14:33:36.653Z,18.91
2019-03-29T14:36:11.455Z,18.93
2019-03-29T14:38:46.014Z,18.93
2019-03-29T14:41:20.481Z,19.09
2019-03-29T14:43:55.151Z,18.91
2019-03-29T14:46:31.404Z,18.96
2019-03-29T14:49:08.050Z,19.05
2019-03-29T14:51:42.442Z,18.88
2019-03-29T14:54:16.877Z,18.73
2019-03-29T14:56:51.599Z,18.78
2019-03-29T14:59:26.041Z,18.93
2019-03-29T15:02:00.478Z,18.70
2019-03-29T15:04:34.961Z,18.71
2019-03-29T15:07:09.466Z,18.77
2019-03-29T15:09:44.028Z,18.68
2019-03-29T15:12:18.538Z,18.78
2019-03-29T15:15:05.599Z,18.49
2019-03-29T15:17:29.076Z,18.40
2019-03-29T15:20:07.505Z,18.21
2019-03-29T15:22:41.919Z,18.32
2019-03-29T15:25:16.341Z,18.27
2019-03-29T15:27:50.755Z,18.24
2019-03-29T15:30:25.169Z,18.25
2019-03-29T15:32:59.649Z,18.22
2019-03-29T15:35:34.106Z,17.98
2019-03-29T15:38:08.821Z,17.99
2019-03-29T15:40:43.250Z,17.85
2019-03-29T15:43:18.040Z,18.06
2019-03-29T15:45:52.847Z,17.99
2019-03-29T15:48:27.940Z,17.91
2019-03-29T15:51:02.461Z,17.82
2019-03-29T15:53:37.090Z,17.87
2019-03-29T15:56:11.810Z,17.69
2019-03-29T15:58:46.275Z,17.70
2019-03-29T16:01:20.661Z,17.73
2019-03-29T16:03:55.071Z,17.83
2019-03-29T16:06:29.535Z,17.81
2019-03-29T16:09:04.750Z,17.60
2019-03-29T16:11:39.183Z,17.65
2019-03-29T16:14:13.697Z,17.47
2019-03-29T16:16:48.148Z,17.49
2019-03-29T16:19:22.535Z,17.22
2019-03-29T16:21:57.072Z,16.98
2019-03-29T16:24:31.466Z,17.01
2019-03-29T16:27:06.282Z,16.83
2019-03-29T16:29:42.214Z,16.72
2019-03-29T16:32:16.643Z,16.65
2019-03-29T16:34:51.123Z,16.73
2019-03-29T16:37:26.051Z,16.80
2019-03-29T16:40:00.523Z,16.71
2019-03-29T16:42:35.024Z,16.76
2019-03-29T16:45:09.653Z,16.65
2019-03-29T16:47:44.154Z,16.53
2019-03-29T16:50:18.543Z,16.44
2019-03-29T16:52:53.025Z,16.38
2019-03-29T16:55:32.129Z,16.37
2019-03-29T16:58:06.757Z,16.31
2019-03-29T17:00:41.274Z,16.21
2019-03-29T17:03:15.732Z,16.18
2019-03-29T17:05:50.822Z,16.09
2019-03-29T17:08:25.301Z,15.95
2019-03-29T17:10:59.784Z,15.76
2019-03-29T17:13:34.227Z,15.58
2019-03-29T17:16:08.831Z,15.50
2019-03-29T17:18:43.324Z,15.41
2019-03-29T17:21:17.787Z,15.29
2019-03-29T17:23:52.858Z,15.16
2019-03-29T17:27:38.616Z,15.12
2019-03-29T17:30:15.685Z,14.96
2019-03-29T17:32:50.555Z,14.81
2019-03-29T17:35:25.036Z,14.73
2019-03-29T17:37:59.438Z,14.65
2019-03-29T17:40:35.710Z,14.56
2019-03-29T17:43:10.209Z,14.45
2019-03-29T17:45:44.727Z,14.28
2019-03-29T17:48:19.294Z,14.16
2019-03-29T17:50:53.696Z,14.01
2019-03-29T17:53:28.487Z,13.92
2019-03-29T17:56:03.469Z,13.80
2019-03-29T17:58:38.297Z,13.71
2019-03-29T18:01:13.297Z,13.60
2019-03-29T18:03:47.781Z,13.49
2019-03-29T18:06:22.228Z,13.42
2019-03-29T18:08:56.742Z,13.37
2019-03-29T18:11:31.313Z,13.33
2019-03-29T18:14:06.136Z,13.22
2019-03-29T18:16:40.676Z,13.14
2019-03-29T18:19:15.476Z,13.07
2019-03-29T18:21:49.955Z,12.96
2019-03-29T18:24:24.362Z,12.88
2019-03-29T18:26:58.852Z,12.80
2019-03-29T18:29:33.590Z,12.67
2019-03-29T18:32:08.432Z,12.56
2019-03-29T18:34:43.094Z,12.48
2019-03-29T18:37:17.644Z,12.40
2019-03-29T18:39:54.980Z,12.35
2019-03-29T18:42:28.720Z,12.26
2019-03-29T18:45:03.649Z,12.17
2019-03-29T18:47:38.385Z,12.10
2019-03-29T18:50:13.103Z,12.01
2019-03-29T18:52:47.641Z,11.92
2019-03-29T18:55:22.733Z,11.87
2019-03-29T18:57:57.601Z,11.80
2019-03-29T19:00:34.127Z,11.69
2019-03-29T19:03:11.994Z,11.63
2019-03-29T19:05:46.842Z,11.58
2019-03-29T19:08:21.483Z,11.52
2019-03-29T19:10:56.565Z,11.45
2019-03-29T19:13:31.211Z,11.43
2019-03-29T19:16:05.977Z,11.51
2019-03-29T19:18:42.461Z,11.47
2019-03-29T19:21:17.494Z,11.44
2019-03-29T19:23:52.314Z,11.42
2019-03-29T19:26:28.781Z,11.33
2019-03-29T19:29:03.709Z,11.31
2019-03-29T19:31:38.200Z,11.32
2019-03-29T19:34:13.660Z,11.26
2019-03-29T19:36:48.227Z,11.20
2019-03-29T19:39:23.589Z,11.09
2019-03-29T19:41:58.294Z,11.03
2019-03-29T19:44:33.985Z,10.93
2019-03-29T19:47:13.681Z,10.94
2019-03-29T19:49:45.027Z,10.88
2019-03-29T19:52:19.459Z,10.87
2019-03-29T19:54:53.921Z,10.91
2019-03-29T19:57:28.954Z,11.05
2019-03-29T20:00:06.103Z,10.97
2019-03-29T20:02:39.857Z,10.93
2019-03-29T20:05:29.630Z,10.86
2019-03-29T20:08:05.593Z,10.83
2019-03-29T20:10:40.038Z,10.74
2019-03-29T20:13:14.543Z,10.71
2019-03-29T20:15:49.346Z,10.69
2019-03-29T20:18:25.737Z,10.67
2019-03-29T20:21:01.861Z,10.62
2019-03-29T20:23:36.260Z,10.57
2019-03-29T20:26:10.739Z,10.63
2019-03-29T20:28:45.185Z,10.51
2019-03-29T20:31:19.974Z,10.47
2019-03-29T20:33:54.509Z,10.41
2019-03-29T20:36:28.921Z,10.26
2019-03-29T20:39:03.758Z,10.17
2019-03-29T20:41:38.556Z,10.02
2019-03-29T20:44:15.256Z,9.90
2019-03-29T20:46:49.975Z,9.74
2019-03-29T20:49:24.415Z,9.69
2019-03-29T20:51:59.194Z,9.64
2019-03-29T20:54:33.916Z,9.58
2019-03-29T20:57:08.655Z,9.48
2019-03-29T20:59:43.907Z,9.45
2019-03-29T21:02:18.353Z,9.40
2019-03-29T21:04:53.099Z,9.37
2019-03-29T21:07:27.599Z,9.54
2019-03-29T21:10:02.092Z,9.31
2019-03-29T21:12:38.176Z,9.18
2019-03-29T21:15:13.104Z,9.19
2019-03-29T21:17:56.445Z,9.11
2019-03-29T21:20:23.948Z,9.08
2019-03-29T21:22:58.745Z,8.99
2019-03-29T21:25:33.147Z,8.91
2019-03-29T21:28:07.685Z,8.82
2019-03-29T21:30:42.359Z,8.76
2019-03-29T21:33:17.171Z,8.79
2019-03-29T21:35:51.860Z,8.74
2019-03-29T21:38:26.345Z,8.68
2019-03-29T21:41:00.725Z,8.59
2019-03-29T21:43:35.240Z,8.54
2019-03-29T21:46:10.031Z,8.52
2019-03-29T21:48:44.502Z,8.46
2019-03-29T21:51:18.970Z,8.42
2019-03-29T21:53:54.546Z,8.38
2019-03-29T21:56:29.118Z,8.43
2019-03-29T21:59:03.552Z,8.37
2019-03-29T22:01:40.862Z,8.34
2019-03-29T22:04:15.850Z,8.29
2019-03-29T22:06:50.552Z,8.16
2019-03-29T22:09:36.393Z,8.24
2019-03-29T22:12:01.077Z,8.33
2019-03-29T22:14:35.483Z,8.31
2019-03-29T22:17:10.329Z,8.29
2019-03-29T22:19:45.022Z,8.26
2019-03-29T22:22:19.969Z,8.20
2019-03-29T22:24:54.457Z,8.11
2019-03-29T22:27:28.838Z,8.04
2019-03-29T22:30:03.403Z,7.98
2019-03-29T22:32:38.682Z,7.93
2019-03-29T22:35:13.090Z,7.88
2019-03-29T22:37:47.576Z,7.98
2019-03-29T22:40:21.953Z,7.95
2019-03-29T22:42:56.649Z,7.91
2019-03-29T22:45:31.614Z,7.86
2019-03-29T22:48:06.717Z,7.80
2019-03-29T22:50:41.070Z,7.76
2019-03-29T22:53:15.652Z,7.74
2019-03-29T22:55:50.046Z,7.75
2019-03-29T22:58:24.454Z,7.69
2019-03-29T23:01:00.763Z,7.62
2019-03-29T23:03:35.155Z,7.61
2019-03-29T23:06:09.549Z,7.59
2019-03-29T23:08:43.907Z,7.59
2019-03-29T23:11:18.323Z,7.57
2019-03-29T23:13:52.710Z,7.60
2019-03-29T23:16:30.261Z,7.60
2019-03-29T23:19:06.721Z,7.70
2019-03-29T23:21:39.504Z,7.68
2019-03-29T23:24:13.916Z,7.65
2019-03-29T23:26:48.565Z,7.63
2019-03-29T23:29:22.982Z,7.59
2019-03-29T23:31:57.620Z,7.58
2019-03-29T23:34:32.309Z,7.54
2019-03-29T23:37:06.657Z,7.53
2019-03-29T23:39:41.252Z,7.54
2019-03-29T23:42:16.290Z,7.54
2019-03-29T23:44:51.122Z,7.49
2019-03-29T23:47:25.458Z,7.42
2019-03-29T23:50:00.291Z,7.42
2019-03-29T23:52:34.688Z,7.40
2019-03-29T23:55:09.133Z,7.33
2019-03-29T23:57:43.580Z,7.29
